createdAt,value
2024-01-22T00:00:58.565Z,61.96
2024-01-22T00:02:04.369Z,62.31
2024-01-22T00:03:06.544Z,62.26
2024-01-22T00:04:10.421Z,62.33
2024-01-22T00:05:12.472Z,62.54
2024-01-22T00:06:14.887Z,63.31
2024-01-22T00:07:17.041Z,62.92
2024-01-22T00:08:19.386Z,63.11
2024-01-22T00:09:21.530Z,63.29
2024-01-22T00:10:23.876Z,63.99
2024-01-22T00:11:27.822Z,64.51
2024-01-22T00:12:30.018Z,64.58
2024-01-22T00:13:34.279Z,64.27
2024-01-22T00:14:36.686Z,64.42
2024-01-22T00:15:39.370Z,64.81
2024-01-22T00:16:43.059Z,65.29
2024-01-22T00:17:47.546Z,65.64
2024-01-22T00:18:51.157Z,65.63
2024-01-22T00:19:56.180Z,65.97
2024-01-22T00:20:59.763Z,65.82
2024-01-22T00:22:02.212Z,65.75
2024-01-22T00:23:07.361Z,65.61
2024-01-22T00:24:10.431Z,65.49
2024-01-22T00:25:12.403Z,65.23
2024-01-22T00:26:14.812Z,65.53
2024-01-22T00:27:19.023Z,64.96
2024-01-22T00:28:21.639Z,65.67
2024-01-22T00:29:26.839Z,65.66
2024-01-22T00:30:30.129Z,65.65
2024-01-22T00:31:34.918Z,65.74
2024-01-22T00:32:38.269Z,65.51
2024-01-22T00:33:42.989Z,65.48
2024-01-22T00:34:45.297Z,65.47
2024-01-22T00:35:47.775Z,65.47
2024-01-22T00:36:50.059Z,65.44
2024-01-22T00:37:52.144Z,65.74
2024-01-22T00:38:54.179Z,65.44
2024-01-22T00:39:57.972Z,66.14
2024-01-22T00:41:00.154Z,66.60
2024-01-22T00:42:02.346Z,66.95
2024-01-22T00:43:05.097Z,67.09
2024-01-22T00:44:07.426Z,67.48
2024-01-22T00:45:12.530Z,67.80
2024-01-22T00:46:14.950Z,67.73
2024-01-22T00:47:18.314Z,67.80
2024-01-22T00:48:20.350Z,67.35
2024-01-22T00:49:23.046Z,67.06
2024-01-22T00:50:27.605Z,66.99
2024-01-22T00:51:29.930Z,66.78
2024-01-22T00:52:32.188Z,66.83
2024-01-22T00:53:35.418Z,66.72
2024-01-22T00:54:37.466Z,67.02
2024-01-22T00:55:41.413Z,67.38
2024-01-22T00:56:43.897Z,67.26
2024-01-22T00:57:48.171Z,67.55
2024-01-22T00:58:50.961Z,67.66
2024-01-22T00:59:53.451Z,67.37
2024-01-22T01:00:57.975Z,67.72
2024-01-22T01:02:00.416Z,67.81
2024-01-22T01:03:02.940Z,67.83
2024-01-22T01:04:05.178Z,67.95
2024-01-22T01:05:10.077Z,68.41
2024-01-22T01:06:13.822Z,68.94
2024-01-22T01:07:16.131Z,69.36
2024-01-22T01:08:18.067Z,69.19
2024-01-22T01:09:21.372Z,69.35
2024-01-22T01:10:23.760Z,69.01
2024-01-22T01:11:25.849Z,69.57
2024-01-22T01:12:30.822Z,69.80
2024-01-22T01:13:34.101Z,69.75
2024-01-22T01:14:36.260Z,70.43
2024-01-22T01:15:39.082Z,70.45
2024-01-22T01:16:41.839Z,72.40
2024-01-22T01:17:44.084Z,72.09
2024-01-22T01:18:48.525Z,71.25
2024-01-22T01:19:50.929Z,70.92
2024-01-22T01:20:53.118Z,70.84
2024-01-22T01:21:55.122Z,70.56
2024-01-22T01:22:57.247Z,70.58
2024-01-22T01:24:00.598Z,70.10
2024-01-22T01:25:03.072Z,70.49
2024-01-22T01:26:05.722Z,71.44
2024-01-22T01:27:08.039Z,70.58
2024-01-22T01:28:10.175Z,69.79
2024-01-22T01:29:12.559Z,69.29
2024-01-22T01:30:15.290Z,69.22
2024-01-22T01:31:17.654Z,69.17
2024-01-22T01:32:19.956Z,69.01
2024-01-22T01:33:24.322Z,68.46
2024-01-22T01:34:26.905Z,68.91
2024-01-22T01:35:30.934Z,69.62
2024-01-22T01:36:33.332Z,70.17
2024-01-22T01:37:35.587Z,69.65
2024-01-22T01:38:38.823Z,69.32
2024-01-22T01:39:41.711Z,69.16
2024-01-22T01:40:44.080Z,69.26
2024-01-22T01:41:51.089Z,68.92
2024-01-22T01:42:55.877Z,68.67
2024-01-22T01:43:58.664Z,68.50
2024-01-22T01:45:04.591Z,68.43
2024-01-22T01:46:08.323Z,68.44
2024-01-22T01:47:10.532Z,68.41
2024-01-22T01:48:14.139Z,68.48
2024-01-22T01:49:16.518Z,68.46
2024-01-22T01:50:19.907Z,68.51
2024-01-22T01:51:24.316Z,68.56
2024-01-22T01:52:26.663Z,68.59
2024-01-22T01:53:28.765Z,68.66
2024-01-22T01:54:31.351Z,69.07
2024-01-22T01:55:36.062Z,70.28
2024-01-22T01:56:39.736Z,69.92
2024-01-22T01:57:45.941Z,69.69
2024-01-22T01:58:49.417Z,69.45
2024-01-22T01:59:53.251Z,69.45
2024-01-22T02:00:57.320Z,68.89
2024-01-22T02:02:00.346Z,68.87
2024-01-22T02:03:04.133Z,68.75
2024-01-22T02:04:06.849Z,68.50
2024-01-22T02:05:09.505Z,68.74
2024-01-22T02:06:16.545Z,68.60
2024-01-22T02:07:18.801Z,68.92
2024-01-22T02:08:21.072Z,69.20
2024-01-22T02:09:23.408Z,68.97
2024-01-22T02:10:25.945Z,68.60
2024-01-22T02:11:27.958Z,68.43
2024-01-22T02:12:31.230Z,68.18
2024-01-22T02:13:34.587Z,68.33
2024-01-22T02:14:36.990Z,68.24
2024-01-22T02:15:39.513Z,68.13
2024-01-22T02:16:43.002Z,68.41
2024-01-22T02:17:48.487Z,68.63
2024-01-22T02:18:50.632Z,68.30
2024-01-22T02:19:52.695Z,68.26
2024-01-22T02:20:55.420Z,68.56
2024-01-22T02:21:58.543Z,68.23
2024-01-22T02:23:07.453Z,67.85
2024-01-22T02:24:09.581Z,67.76
2024-01-22T02:25:13.053Z,68.43
2024-01-22T02:26:17.133Z,68.38
2024-01-22T02:27:19.904Z,68.72
2024-01-22T02:28:22.452Z,68.86
2024-01-22T02:29:25.918Z,69.23
2024-01-22T02:30:28.654Z,69.63
2024-01-22T02:31:31.367Z,69.44
2024-01-22T02:32:33.465Z,69.34
2024-01-22T02:33:35.942Z,69.29
2024-01-22T02:34:38.165Z,69.40
2024-01-22T02:35:41.471Z,69.09
2024-01-22T02:36:43.748Z,69.25
2024-01-22T02:37:46.454Z,69.13
2024-01-22T02:38:48.578Z,69.63
2024-01-22T02:39:50.671Z,69.94
2024-01-22T02:40:53.146Z,69.93
2024-01-22T02:41:55.134Z,69.75
2024-01-22T02:42:57.135Z,70.11
2024-01-22T02:43:59.136Z,69.73
2024-01-22T02:45:04.086Z,69.73
2024-01-22T02:46:06.494Z,69.90
2024-01-22T02:47:09.566Z,69.81
2024-01-22T02:48:14.730Z,69.58
2024-01-22T02:49:17.025Z,69.92
2024-01-22T02:50:20.823Z,70.45
2024-01-22T02:51:22.755Z,70.55
2024-01-22T02:52:24.711Z,70.32
2024-01-22T02:53:28.002Z,70.34
2024-01-22T02:54:30.053Z,70.93
2024-01-22T02:55:32.052Z,70.61
2024-01-22T02:56:34.374Z,70.56
2024-01-22T02:57:36.433Z,70.51
2024-01-22T02:58:38.733Z,70.37
2024-01-22T02:59:42.364Z,70.40
2024-01-22T03:00:45.739Z,70.44
2024-01-22T03:01:49.774Z,70.56
2024-01-22T03:02:52.799Z,70.54
2024-01-22T03:03:55.027Z,70.44
2024-01-22T03:04:57.572Z,70.25
2024-01-22T03:05:59.883Z,70.26
2024-01-22T03:07:02.198Z,70.30
2024-01-22T03:08:07.806Z,70.30
2024-01-22T03:09:09.794Z,70.73
2024-01-22T03:10:13.463Z,70.87
2024-01-22T03:11:17.734Z,71.19
2024-01-22T03:12:22.402Z,71.40
2024-01-22T03:13:24.561Z,71.52
2024-01-22T03:14:26.897Z,71.37
2024-01-22T03:15:28.817Z,71.14
2024-01-22T03:16:31.321Z,70.96
2024-01-22T03:17:34.584Z,70.96
2024-01-22T03:18:36.681Z,70.82
2024-01-22T03:19:38.926Z,71.18
2024-01-22T03:20:41.730Z,71.23
2024-01-22T03:21:43.686Z,71.06
2024-01-22T03:22:45.727Z,70.92
2024-01-22T03:23:51.755Z,71.05
2024-01-22T03:24:53.875Z,71.45
2024-01-22T03:25:56.065Z,71.43
2024-01-22T03:26:58.197Z,71.06
2024-01-22T03:28:01.607Z,71.24
2024-01-22T03:29:03.696Z,71.07
2024-01-22T03:30:10.459Z,71.16
2024-01-22T03:31:29.355Z,71.26
2024-01-22T03:32:31.548Z,71.26
2024-01-22T03:33:35.289Z,70.94
2024-01-22T03:34:41.024Z,71.37
2024-01-22T03:35:43.075Z,71.37
2024-01-22T03:36:46.823Z,71.35
2024-01-22T03:37:49.954Z,71.62
2024-01-22T03:38:52.913Z,71.85
2024-01-22T03:39:55.054Z,72.40
2024-01-22T03:40:57.422Z,72.54
2024-01-22T03:41:59.464Z,72.33
2024-01-22T03:43:04.192Z,72.36
2024-01-22T03:44:06.305Z,72.79
2024-01-22T03:45:09.886Z,72.83
2024-01-22T03:46:14.105Z,72.58
2024-01-22T03:47:16.338Z,73.04
2024-01-22T03:48:18.603Z,75.14
2024-01-22T03:49:21.988Z,75.94
2024-01-22T03:50:24.323Z,75.53
2024-01-22T03:51:26.488Z,74.77
2024-01-22T03:52:29.791Z,74.11
2024-01-22T03:53:33.105Z,74.20
2024-01-22T03:54:35.335Z,73.80
2024-01-22T03:55:37.342Z,73.86
2024-01-22T03:56:39.694Z,73.86
2024-01-22T03:57:44.021Z,73.84
2024-01-22T03:58:46.768Z,73.59
2024-01-22T03:59:49.306Z,73.04
2024-01-22T04:00:51.932Z,72.63
2024-01-22T04:01:58.505Z,72.22
2024-01-22T04:03:00.733Z,72.29
2024-01-22T04:04:06.492Z,72.10
2024-01-22T04:05:11.499Z,71.81
2024-01-22T04:06:15.226Z,71.59
2024-01-22T04:07:17.673Z,72.00
2024-01-22T04:08:20.883Z,74.52
2024-01-22T04:09:23.589Z,74.58
2024-01-22T04:10:25.983Z,73.71
2024-01-22T04:11:29.371Z,73.09
2024-01-22T04:12:31.456Z,73.08
2024-01-22T04:13:35.660Z,72.56
2024-01-22T04:14:41.582Z,72.26
2024-01-22T04:15:44.662Z,72.14
2024-01-22T04:16:47.062Z,72.44
2024-01-22T04:17:49.740Z,72.97
2024-01-22T04:18:52.286Z,73.42
2024-01-22T04:19:54.525Z,73.13
2024-01-22T04:20:57.127Z,73.13
2024-01-22T04:21:59.251Z,73.02
2024-01-22T04:23:01.350Z,73.25
2024-01-22T04:24:05.854Z,72.84
2024-01-22T04:25:11.616Z,72.68
2024-01-22T04:26:14.154Z,72.51
2024-01-22T04:27:16.280Z,72.32
2024-01-22T04:28:18.725Z,72.09
2024-01-22T04:29:22.023Z,71.79
2024-01-22T04:30:24.401Z,71.61
2024-01-22T04:31:28.716Z,71.57
2024-01-22T04:32:31.072Z,71.69
2024-01-22T04:33:34.171Z,71.60
2024-01-22T04:34:38.374Z,71.90
2024-01-22T04:35:41.848Z,72.18
2024-01-22T04:36:44.291Z,73.24
2024-01-22T04:37:46.782Z,72.83
2024-01-22T04:38:50.855Z,72.44
2024-01-22T04:39:52.907Z,74.44
2024-01-22T04:41:00.102Z,75.01
2024-01-22T04:42:04.401Z,74.03
2024-01-22T04:43:06.806Z,73.62
2024-01-22T04:44:09.411Z,73.51
2024-01-22T04:45:12.723Z,74.41
2024-01-22T04:46:14.928Z,74.06
2024-01-22T04:47:16.856Z,73.70
2024-01-22T04:48:18.812Z,73.07
2024-01-22T04:49:21.004Z,72.74
2024-01-22T04:50:24.853Z,72.71
2024-01-22T04:51:29.309Z,72.66
2024-01-22T04:52:31.660Z,73.25
2024-01-22T04:53:35.288Z,73.54
2024-01-22T04:54:39.578Z,73.77
2024-01-22T04:55:44.492Z,73.20
2024-01-22T04:56:48.710Z,73.00
2024-01-22T04:57:50.994Z,72.60
2024-01-22T04:58:53.494Z,72.50
2024-01-22T04:59:57.795Z,73.77
2024-01-22T05:01:00.570Z,73.68
2024-01-22T05:02:02.896Z,73.38
2024-01-22T05:03:05.321Z,73.04
2024-01-22T05:04:07.757Z,72.71
2024-01-22T05:05:10.090Z,72.71
2024-01-22T05:06:12.408Z,72.69
2024-01-22T05:07:14.487Z,72.97
2024-01-22T05:08:18.793Z,72.73
2024-01-22T05:09:22.213Z,73.30
2024-01-22T05:10:25.248Z,73.00
2024-01-22T05:11:27.299Z,72.76
2024-01-22T05:12:30.806Z,72.31
2024-01-22T05:13:34.998Z,72.44
2024-01-22T05:14:38.907Z,72.52
2024-01-22T05:15:42.461Z,73.53
2024-01-22T05:16:44.702Z,73.72
2024-01-22T05:17:47.205Z,72.76
2024-01-22T05:18:51.657Z,72.28
2024-01-22T05:19:53.852Z,71.97
2024-01-22T05:20:56.091Z,71.86
2024-01-22T05:22:00.048Z,71.93
2024-01-22T05:23:01.989Z,72.56
2024-01-22T05:24:05.509Z,72.04
2024-01-22T05:25:07.582Z,71.63
2024-01-22T05:26:10.002Z,71.50
2024-01-22T05:27:13.032Z,71.45
2024-01-22T05:28:15.439Z,71.78
2024-01-22T05:29:17.457Z,71.93
2024-01-22T05:30:22.139Z,71.64
2024-01-22T05:31:24.170Z,72.55
2024-01-22T05:32:26.105Z,73.02
2024-01-22T05:33:29.438Z,72.56
2024-01-22T05:34:31.570Z,72.29
2024-01-22T05:35:36.664Z,74.61
2024-01-22T05:36:38.897Z,74.00
2024-01-22T05:37:41.201Z,73.48
2024-01-22T05:38:44.314Z,74.63
2024-01-22T05:39:46.582Z,73.88
2024-01-22T05:40:48.883Z,73.03
2024-01-22T05:41:51.555Z,72.45
2024-01-22T05:42:53.928Z,73.02
2024-01-22T05:43:57.693Z,73.02
2024-01-22T05:45:00.370Z,72.66
2024-01-22T05:46:04.236Z,72.60
2024-01-22T05:47:06.279Z,74.47
2024-01-22T05:48:11.213Z,73.94
2024-01-22T05:49:14.878Z,73.52
2024-01-22T05:50:17.244Z,71.51
2024-01-22T05:51:21.400Z,70.72
2024-01-22T05:52:23.726Z,69.36
2024-01-22T05:53:25.856Z,68.98
2024-01-22T05:54:27.832Z,70.09
2024-01-22T05:55:30.077Z,71.62
2024-01-22T05:56:32.771Z,72.51
2024-01-22T05:57:34.933Z,73.30
2024-01-22T05:58:37.097Z,72.88
2024-01-22T05:59:39.315Z,72.26
2024-01-22T06:00:41.621Z,72.05
2024-01-22T06:01:47.767Z,71.25
2024-01-22T06:02:49.800Z,71.03
2024-01-22T06:03:53.317Z,70.58
2024-01-22T06:04:58.064Z,70.78
2024-01-22T06:06:00.223Z,71.18
2024-01-22T06:07:05.668Z,70.37
2024-01-22T06:08:06.377Z,69.87
2024-01-22T06:09:08.293Z,69.83
2024-01-22T06:10:10.916Z,70.20
2024-01-22T06:11:16.265Z,69.94
2024-01-22T06:12:18.570Z,69.99
2024-01-22T06:13:21.572Z,70.02
2024-01-22T06:14:24.061Z,70.94
2024-01-22T06:15:26.083Z,70.13
2024-01-22T06:16:28.603Z,69.85
2024-01-22T06:17:32.766Z,69.86
2024-01-22T06:18:36.451Z,69.40
2024-01-22T06:19:38.948Z,69.92
2024-01-22T06:20:42.842Z,70.01
2024-01-22T06:21:45.090Z,70.08
2024-01-22T06:22:48.552Z,70.37
2024-01-22T06:23:50.775Z,70.92
2024-01-22T06:24:52.954Z,70.44
2024-01-22T06:25:55.448Z,69.45
2024-01-22T06:26:57.904Z,69.63
2024-01-22T06:28:00.062Z,69.31
2024-01-22T06:29:02.273Z,69.03
2024-01-22T06:30:05.947Z,69.13
2024-01-22T06:31:10.296Z,69.01
2024-01-22T06:32:13.404Z,68.71
2024-01-22T06:33:15.429Z,69.05
2024-01-22T06:34:18.388Z,69.74
2024-01-22T06:35:22.377Z,69.97
2024-01-22T06:36:24.882Z,71.23
2024-01-22T06:37:29.283Z,70.82
2024-01-22T06:38:31.269Z,70.16
2024-01-22T06:39:35.200Z,69.71
2024-01-22T06:40:38.991Z,69.81
2024-01-22T06:41:42.274Z,69.99
2024-01-22T06:42:44.707Z,69.72
2024-01-22T06:43:47.856Z,68.97
2024-01-22T06:44:49.826Z,68.82
2024-01-22T06:45:52.441Z,68.74
2024-01-22T06:46:54.791Z,70.05
2024-01-22T06:47:58.093Z,69.37
2024-01-22T06:49:01.985Z,71.60
2024-01-22T06:50:05.915Z,72.67
2024-01-22T06:51:11.567Z,71.41
2024-01-22T06:52:14.811Z,70.18
2024-01-22T06:53:16.956Z,70.38
2024-01-22T06:54:20.850Z,69.86
2024-01-22T06:55:23.696Z,69.65
2024-01-22T06:56:26.261Z,68.92
2024-01-22T06:57:28.394Z,69.05
2024-01-22T06:58:33.347Z,69.05
2024-01-22T06:59:39.452Z,68.68
2024-01-22T07:00:42.222Z,68.54
2024-01-22T07:01:47.294Z,68.16
2024-01-22T07:02:49.391Z,67.63
2024-01-22T07:03:54.124Z,67.64
2024-01-22T07:04:56.134Z,67.59
2024-01-22T07:06:00.914Z,67.83
2024-01-22T07:07:05.527Z,69.31
2024-01-22T07:08:13.368Z,69.71
2024-01-22T07:09:15.660Z,69.22
2024-01-22T07:10:18.324Z,68.07
2024-01-22T07:11:20.664Z,68.86
2024-01-22T07:12:24.871Z,68.43
2024-01-22T07:13:28.393Z,69.83
2024-01-22T07:14:30.401Z,70.64
2024-01-22T07:15:32.917Z,69.54
2024-01-22T07:16:37.958Z,69.84
2024-01-22T07:17:40.930Z,70.02
2024-01-22T07:18:44.052Z,69.82
2024-01-22T07:19:46.686Z,71.62
2024-01-22T07:20:49.012Z,70.52
2024-01-22T07:21:51.101Z,70.69
2024-01-22T07:22:56.245Z,71.38
2024-01-22T07:23:58.321Z,69.81
2024-01-22T07:25:00.597Z,71.12
2024-01-22T07:26:05.307Z,72.02
2024-01-22T07:27:07.384Z,71.76
2024-01-22T07:28:09.331Z,71.69
2024-01-22T07:29:11.598Z,71.34
2024-01-22T07:30:14.969Z,70.14
2024-01-22T07:31:17.203Z,69.32
2024-01-22T07:32:19.213Z,69.33
2024-01-22T07:33:22.739Z,69.15
2024-01-22T07:34:24.951Z,68.67
2024-01-22T07:35:27.775Z,68.01
2024-01-22T07:36:30.018Z,67.43
2024-01-22T07:37:31.973Z,68.50
2024-01-22T07:38:33.977Z,69.49
2024-01-22T07:39:36.071Z,69.07
2024-01-22T07:40:38.316Z,70.02
2024-01-22T07:41:40.279Z,69.39
2024-01-22T07:42:42.973Z,68.44
2024-01-22T07:43:45.249Z,67.40
2024-01-22T07:44:51.446Z,68.06
2024-01-22T07:45:55.834Z,68.10
2024-01-22T07:47:00.261Z,66.80
2024-01-22T07:48:03.283Z,66.16
2024-01-22T07:49:05.786Z,65.23
2024-01-22T07:50:10.247Z,65.41
2024-01-22T07:51:12.351Z,65.81
2024-01-22T07:52:16.450Z,66.73
2024-01-22T07:53:19.406Z,65.94
2024-01-22T07:54:25.607Z,65.19
2024-01-22T07:55:31.640Z,65.38
2024-01-22T07:56:33.859Z,66.19
2024-01-22T07:57:37.869Z,66.12
2024-01-22T07:58:39.906Z,66.14
2024-01-22T07:59:44.634Z,67.75
2024-01-22T08:00:47.184Z,69.17
2024-01-22T08:01:49.361Z,68.30
2024-01-22T08:02:51.765Z,68.90
2024-01-22T08:03:54.474Z,68.34
2024-01-22T08:04:58.748Z,67.30
2024-01-22T08:06:01.347Z,66.96
2024-01-22T08:07:05.452Z,66.16
2024-01-22T08:08:09.708Z,66.79
2024-01-22T08:09:12.973Z,65.21
2024-01-22T08:10:16.057Z,64.89
2024-01-22T08:11:18.436Z,65.03
2024-01-22T08:12:20.555Z,66.77
2024-01-22T08:13:24.708Z,66.31
2024-01-22T08:14:26.656Z,67.57
2024-01-22T08:15:29.451Z,65.93
2024-01-22T08:16:32.550Z,64.88
2024-01-22T08:17:34.732Z,64.26
2024-01-22T08:18:37.131Z,63.73
2024-01-22T08:19:40.511Z,63.39
2024-01-22T08:20:43.399Z,63.17
2024-01-22T08:21:45.734Z,63.08
2024-01-22T08:22:48.856Z,62.74
2024-01-22T08:23:51.163Z,62.40
2024-01-22T08:24:55.401Z,62.79
2024-01-22T08:25:57.551Z,65.51
2024-01-22T08:27:02.055Z,66.88
2024-01-22T08:28:05.445Z,68.38
2024-01-22T08:29:07.507Z,67.33
2024-01-22T08:30:12.554Z,66.72
2024-01-22T08:31:14.629Z,66.09
2024-01-22T08:32:18.515Z,65.28
2024-01-22T08:33:20.855Z,64.74
2024-01-22T08:34:23.596Z,65.96
2024-01-22T08:35:26.069Z,65.74
2024-01-22T08:36:28.226Z,66.33
2024-01-22T08:37:30.662Z,66.44
2024-01-22T08:38:35.422Z,66.80
2024-01-22T08:39:37.719Z,65.92
2024-01-22T08:40:42.702Z,65.98
2024-01-22T08:41:44.902Z,66.36
2024-01-22T08:42:52.768Z,65.79
2024-01-22T08:43:56.389Z,66.24
2024-01-22T08:44:59.510Z,65.82
2024-01-22T08:46:03.512Z,65.42
2024-01-22T08:47:07.754Z,64.75
2024-01-22T08:48:11.368Z,66.47
2024-01-22T08:49:13.578Z,66.72
2024-01-22T08:50:16.811Z,65.90
2024-01-22T08:51:20.202Z,66.11
2024-01-22T08:52:22.318Z,67.44
2024-01-22T08:53:24.770Z,68.00
2024-01-22T08:54:28.047Z,67.65
2024-01-22T08:55:31.590Z,67.75
2024-01-22T08:56:35.331Z,67.67
2024-01-22T08:57:38.792Z,67.94
2024-01-22T08:58:41.401Z,68.38
2024-01-22T08:59:51.722Z,68.75
2024-01-22T09:00:57.803Z,66.91
2024-01-22T09:02:04.004Z,67.68
2024-01-22T09:03:08.242Z,68.56
2024-01-22T09:04:11.325Z,67.83
2024-01-22T09:05:52.974Z,67.66
2024-01-22T09:06:57.684Z,68.32
2024-01-22T09:08:01.632Z,65.92
2024-01-22T09:09:05.654Z,65.17
2024-01-22T09:10:11.709Z,65.38
2024-01-22T09:11:14.449Z,64.60
2024-01-22T09:12:18.093Z,64.35
2024-01-22T09:13:21.421Z,64.13
2024-01-22T09:14:24.255Z,63.23
2024-01-22T09:15:26.394Z,63.68
2024-01-22T09:16:29.469Z,63.47
2024-01-22T09:17:31.771Z,63.66
2024-01-22T09:18:35.650Z,64.53
2024-01-22T09:19:38.227Z,63.92
2024-01-22T09:20:41.205Z,63.72
2024-01-22T09:21:46.850Z,63.65
2024-01-22T09:22:49.061Z,64.57
2024-01-22T09:23:51.886Z,63.87
2024-01-22T09:24:55.258Z,63.22
2024-01-22T09:25:58.281Z,64.61
2024-01-22T09:27:01.779Z,63.74
2024-01-22T09:28:04.757Z,63.07
2024-01-22T09:29:06.820Z,63.00
2024-01-22T09:30:10.806Z,64.05
2024-01-22T09:31:12.976Z,63.13
2024-01-22T09:32:16.719Z,62.72
2024-01-22T09:33:22.456Z,64.07
2024-01-22T09:34:26.023Z,63.88
2024-01-22T09:35:28.090Z,63.54
2024-01-22T09:36:32.180Z,63.37
2024-01-22T09:37:35.403Z,62.86
2024-01-22T09:38:41.860Z,63.52
2024-01-22T09:39:47.116Z,64.01
2024-01-22T09:40:51.583Z,64.42
2024-01-22T09:41:54.648Z,63.65
2024-01-22T09:42:57.171Z,64.97
2024-01-22T09:44:00.749Z,64.42
2024-01-22T09:45:06.204Z,63.28
2024-01-22T09:46:10.998Z,63.43
2024-01-22T09:47:13.628Z,64.97
2024-01-22T09:48:17.260Z,63.12
2024-01-22T09:49:20.278Z,62.15
2024-01-22T09:50:22.752Z,63.75
2024-01-22T09:51:28.101Z,62.40
2024-01-22T09:52:33.896Z,61.46
2024-01-22T09:53:36.647Z,61.24
2024-01-22T09:54:42.017Z,61.83
2024-01-22T09:55:47.002Z,61.69
2024-01-22T09:56:52.374Z,61.72
2024-01-22T09:57:59.124Z,62.12
2024-01-22T09:59:05.063Z,61.54
2024-01-22T10:00:12.576Z,60.91
2024-01-22T10:01:17.013Z,61.24
2024-01-22T10:02:20.236Z,61.24
2024-01-22T10:03:24.937Z,61.24
2024-01-22T10:04:27.372Z,61.48
2024-01-22T10:05:31.949Z,62.64
2024-01-22T10:06:34.994Z,61.95
2024-01-22T10:07:37.101Z,61.66
2024-01-22T10:08:39.119Z,61.34
2024-01-22T10:09:44.669Z,61.33
2024-01-22T10:10:47.793Z,61.55
2024-01-22T10:11:50.799Z,61.29
2024-01-22T10:13:01.802Z,62.30
2024-01-22T10:14:03.776Z,62.08
2024-01-22T10:15:15.089Z,61.37
2024-01-22T10:16:20.621Z,60.58
2024-01-22T10:17:23.512Z,60.81
2024-01-22T10:18:26.709Z,61.30
2024-01-22T10:19:30.779Z,62.33
2024-01-22T10:20:34.278Z,62.10
2024-01-22T10:21:41.575Z,61.74
2024-01-22T10:22:44.766Z,61.46
2024-01-22T10:23:59.743Z,61.88
2024-01-22T10:25:03.070Z,61.39
2024-01-22T10:26:06.969Z,61.83
2024-01-22T10:27:16.415Z,61.52
2024-01-22T10:28:19.134Z,61.98
2024-01-22T10:29:21.700Z,61.29
2024-01-22T10:30:24.655Z,61.59
2024-01-22T10:31:27.146Z,61.44
2024-01-22T10:32:29.213Z,61.18
2024-01-22T10:33:32.699Z,62.58
2024-01-22T10:34:48.810Z,63.92
2024-01-22T10:35:51.039Z,63.51
2024-01-22T10:37:12.426Z,63.12
2024-01-22T10:38:17.069Z,63.26
2024-01-22T10:39:19.619Z,64.72
2024-01-22T10:40:25.626Z,62.95
2024-01-22T10:41:27.829Z,63.20
2024-01-22T10:42:31.289Z,63.01
2024-01-22T10:43:34.305Z,62.34
2024-01-22T10:44:38.233Z,63.22
2024-01-22T10:45:41.788Z,63.25
2024-01-22T10:46:46.379Z,62.88
2024-01-22T10:47:50.628Z,63.72
2024-01-22T10:48:55.747Z,62.65
2024-01-22T10:50:01.770Z,62.21
2024-01-22T10:51:05.466Z,61.88
2024-01-22T10:52:10.048Z,62.41
2024-01-22T10:53:12.442Z,62.97
2024-01-22T10:54:14.689Z,62.00
2024-01-22T10:55:18.034Z,62.32
2024-01-22T10:56:27.995Z,63.07
2024-01-22T10:57:34.438Z,63.35
2024-01-22T10:58:42.497Z,62.80
2024-01-22T10:59:51.724Z,63.63
2024-01-22T11:01:00.486Z,63.27
2024-01-22T11:02:07.674Z,62.57
2024-01-22T11:03:14.092Z,62.70
2024-01-22T11:04:20.956Z,62.56
2024-01-22T11:05:28.045Z,61.99
2024-01-22T11:06:35.649Z,62.07
2024-01-22T11:07:40.292Z,61.92
2024-01-22T11:08:47.139Z,61.64
2024-01-22T11:09:57.868Z,61.52
2024-01-22T11:11:00.110Z,62.26
2024-01-22T11:12:10.725Z,64.81
2024-01-22T11:13:14.380Z,64.12
2024-01-22T11:14:17.563Z,64.91
2024-01-22T11:15:19.880Z,64.25
2024-01-22T11:16:25.515Z,63.63
2024-01-22T11:17:28.468Z,63.59
2024-01-22T11:18:30.713Z,63.06
2024-01-22T11:19:34.488Z,65.51
2024-01-22T11:20:38.642Z,66.74
2024-01-22T11:21:41.519Z,66.34
2024-01-22T11:23:02.465Z,65.74
2024-01-22T11:24:15.777Z,65.12
2024-01-22T11:25:20.932Z,65.24
2024-01-22T11:26:24.200Z,67.17
2024-01-22T11:27:41.663Z,67.16
2024-01-22T11:29:04.657Z,65.98
2024-01-22T11:30:28.075Z,65.39
2024-01-22T11:31:30.296Z,67.94
2024-01-22T11:32:32.772Z,65.88
2024-01-22T11:33:35.570Z,65.46
2024-01-22T11:34:45.015Z,64.94
2024-01-22T11:35:46.841Z,67.29
2024-01-22T11:36:55.159Z,67.61
2024-01-22T11:37:58.215Z,66.33
2024-01-22T11:39:00.419Z,65.84
2024-01-22T11:40:05.735Z,65.22
2024-01-22T11:41:09.326Z,64.76
2024-01-22T11:42:22.426Z,64.64
2024-01-22T11:43:27.998Z,65.76
2024-01-22T11:44:32.538Z,64.53
2024-01-22T11:45:41.852Z,65.21
2024-01-22T11:46:41.254Z,66.90
2024-01-22T11:47:46.259Z,66.65
2024-01-22T11:48:53.141Z,66.91
2024-01-22T11:50:01.394Z,67.12
2024-01-22T11:51:08.465Z,67.08
2024-01-22T11:52:13.376Z,66.68
2024-01-22T11:53:15.403Z,65.88
2024-01-22T11:54:17.860Z,66.54
2024-01-22T11:55:22.906Z,66.85
2024-01-22T11:56:26.179Z,67.22
2024-01-22T11:57:35.081Z,67.42
2024-01-22T11:58:37.157Z,67.61
2024-01-22T11:59:39.883Z,68.91
2024-01-22T12:00:43.504Z,69.18
2024-01-22T12:01:50.630Z,69.88
2024-01-22T12:02:52.933Z,70.61
2024-01-22T12:03:57.640Z,71.04
2024-01-22T12:05:08.240Z,70.89
2024-01-22T12:06:11.165Z,71.35
2024-01-22T12:07:14.307Z,69.52
2024-01-22T12:08:16.484Z,72.36
2024-01-22T12:09:18.505Z,72.38
2024-01-22T12:10:25.597Z,71.84
2024-01-22T12:11:31.702Z,71.77
2024-01-22T12:12:33.638Z,71.16
2024-01-22T12:13:40.582Z,71.09
2024-01-22T12:14:42.688Z,70.96
2024-01-22T12:15:47.962Z,71.05
2024-01-22T12:17:01.304Z,69.90
2024-01-22T12:18:05.012Z,71.61
2024-01-22T12:19:13.144Z,72.57
2024-01-22T12:20:18.447Z,72.53
2024-01-22T12:21:21.036Z,70.70
2024-01-22T12:22:27.189Z,70.03
2024-01-22T12:23:31.132Z,69.80
2024-01-22T12:24:33.120Z,71.56
2024-01-22T12:25:38.098Z,71.11
2024-01-22T12:26:42.457Z,71.76
2024-01-22T12:27:44.525Z,71.25
2024-01-22T12:28:53.514Z,72.50
2024-01-22T12:30:08.013Z,71.71
2024-01-22T12:31:10.248Z,71.73
2024-01-22T12:32:14.755Z,71.56
2024-01-22T12:33:24.020Z,70.52
2024-01-22T12:34:29.074Z,70.91
2024-01-22T12:35:32.307Z,70.97
2024-01-22T12:36:36.290Z,70.45
2024-01-22T12:37:38.239Z,69.59
2024-01-22T12:38:49.722Z,69.12
2024-01-22T12:40:09.299Z,68.75
2024-01-22T12:41:15.166Z,70.85
2024-01-22T12:42:20.442Z,70.75
2024-01-22T12:43:25.762Z,69.94
2024-01-22T12:44:28.968Z,70.79
2024-01-22T12:45:31.201Z,69.75
2024-01-22T12:46:35.106Z,70.53
2024-01-22T12:47:37.644Z,72.17
2024-01-22T12:48:41.081Z,70.21
2024-01-22T12:49:44.608Z,70.52
2024-01-22T12:50:47.183Z,69.81
2024-01-22T12:51:49.675Z,68.57
2024-01-22T12:52:53.676Z,69.06
2024-01-22T12:53:56.911Z,68.43
2024-01-22T12:54:59.647Z,70.38
2024-01-22T12:56:03.102Z,69.50
2024-01-22T12:57:06.030Z,68.75
2024-01-22T12:58:11.719Z,71.27
2024-01-22T12:59:14.105Z,70.70
2024-01-22T13:00:18.571Z,70.98
2024-01-22T13:01:23.546Z,70.44
2024-01-22T13:02:29.382Z,70.23
2024-01-22T13:03:31.824Z,69.44
2024-01-22T13:04:40.373Z,70.18
2024-01-22T13:05:43.775Z,70.24
2024-01-22T13:06:46.046Z,69.17
2024-01-22T13:07:48.768Z,68.45
2024-01-22T13:08:53.856Z,70.79
2024-01-22T13:09:57.859Z,71.37
2024-01-22T13:11:00.244Z,70.53
2024-01-22T13:12:04.309Z,72.14
2024-01-22T13:13:06.750Z,71.02
2024-01-22T13:14:08.740Z,70.82
2024-01-22T13:15:11.179Z,72.42
2024-01-22T13:16:17.583Z,72.96
2024-01-22T13:17:19.124Z,71.17
2024-01-22T13:18:21.562Z,69.99
2024-01-22T13:19:24.029Z,69.62
2024-01-22T13:20:29.927Z,69.61
2024-01-22T13:21:32.779Z,69.39
2024-01-22T13:22:36.166Z,70.27
2024-01-22T13:23:38.527Z,69.77
2024-01-22T13:24:40.564Z,70.87
2024-01-22T13:25:43.433Z,70.48
2024-01-22T13:26:45.694Z,73.01
2024-01-22T13:27:48.991Z,72.33
2024-01-22T13:28:51.508Z,72.05
2024-01-22T13:29:54.762Z,71.57
2024-01-22T13:30:57.301Z,70.59
2024-01-22T13:31:59.585Z,71.05
2024-01-22T13:33:02.042Z,70.60
2024-01-22T13:34:04.496Z,72.66
2024-01-22T13:35:08.548Z,71.98
2024-01-22T13:36:11.482Z,71.09
2024-01-22T13:37:14.722Z,70.71
2024-01-22T13:38:17.454Z,70.83
2024-01-22T13:39:20.642Z,70.55
2024-01-22T13:40:25.732Z,69.71
2024-01-22T13:41:27.815Z,69.26